Time;durP1;ratioP1;P1;durP2;ratioP2;P2;SDS_P1;SDS_P2;PMS_P1;PMS_P2;Temp;Humidity;BMP_temperature;BMP_pressure;BME280_temperature;BME280_humidity;BME280_pressure;Samples;Min_cycle;Max_cycle;Signal;HPM_P1;HPM_P2
2021/07/31 00:01:38;;;;;;;21.05;12.75;;;691.90;1664.00;;;;;;5136503;27;20189;-72
2021/07/31 00:04:07;;;;;;;19.33;12.80;;;691.80;1664.00;;;;;;5136515;27;20558;-72
2021/07/31 00:06:33;;;;;;;20.90;11.85;;;691.80;1664.00;;;;;;5117800;27;20567;-72
2021/07/31 00:08:59;;;;;;;14.25;12.25;;;691.80;1664.00;;;;;;5136392;27;20120;-72
2021/07/31 00:11:26;;;;;;;21.63;13.40;;;691.80;1664.00;;;;;;5136351;27;20023;-72
2021/07/31 00:13:51;;;;;;;15.07;12.32;;;691.80;1638.40;;;;;;5136318;27;20019;-72
2021/07/31 00:16:17;;;;;;;17.25;12.15;;;691.80;1664.00;;;;;;5136065;27;20045;-72
2021/07/31 00:18:43;;;;;;;20.60;12.93;;;691.70;1664.00;;;;;;5136253;27;20020;-72
2021/07/31 00:21:09;;;;;;;20.95;13.27;;;691.70;1664.00;;;;;;5136205;27;20069;-72
2021/07/31 00:23:35;;;;;;;20.98;12.25;;;691.70;1664.00;;;;;;5136182;27;20077;-72
2021/07/31 00:26:01;;;;;;;15.35;12.40;;;691.70;1664.00;;;;;;5136347;27;20033;-72
2021/07/31 00:28:27;;;;;;;18.75;12.95;;;691.80;1664.00;;;;;;5136008;27;20019;-72
2021/07/31 00:30:53;;;;;;;19.33;13.18;;;691.70;1664.00;;;;;;5135955;27;20035;-72
2021/07/31 00:33:19;;;;;;;19.70;12.15;;;691.70;1664.00;;;;;;5136198;27;20015;-72
2021/07/31 00:35:45;;;;;;;17.73;12.93;;;691.80;1664.00;;;;;;5136131;27;20023;-72
2021/07/31 00:38:11;;;;;;;20.88;13.43;;;691.80;1664.00;;;;;;5135890;27;20428;-72
2021/07/31 00:40:37;;;;;;;26.42;15.20;;;691.80;1664.00;;;;;;5135705;27;20019;-72
2021/07/31 00:43:07;;;;;;;23.02;13.95;;;691.70;1664.00;;;;;;5136089;27;20057;-72
2021/07/31 00:45:34;;;;;;;19.35;13.43;;;691.70;1664.00;;;;;;5117243;27;20030;-72
2021/07/31 00:48:00;;;;;;;23.52;14.45;;;691.70;1664.00;;;;;;5135932;27;20110;-72
2021/07/31 00:50:28;;;;;;;25.40;12.95;;;691.60;1689.60;;;;;;5117199;27;20072;-72
2021/07/31 00:52:55;;;;;;;33.20;13.73;;;691.60;1689.60;;;;;;5135496;27;20034;-72
2021/07/31 00:55:22;;;;;;;21.25;13.85;;;691.60;1689.60;;;;;;5135460;27;20029;-72
2021/07/31 00:57:50;;;;;;;19.73;13.95;;;691.50;1689.60;;;;;;5135269;27;20391;-72
2021/07/31 01:00:16;;;;;;;20.60;13.88;;;691.50;1689.60;;;;;;5135087;27;20020;-72
2021/07/31 01:02:42;;;;;;;21.00;14.38;;;691.60;1689.60;;;;;;5134945;27;20026;-72
2021/07/31 01:05:08;;;;;;;20.35;13.27;;;691.60;1689.60;;;;;;5116837;27;20461;-72
2021/07/31 01:07:35;;;;;;;21.63;14.07;;;691.60;1689.60;;;;;;5135128;27;20073;-72
2021/07/31 01:10:02;;;;;;;23.33;14.02;;;691.30;1740.80;;;;;;5135191;27;20487;-72
2021/07/31 01:12:29;;;;;;;17.02;13.35;;;691.40;1715.20;;;;;;5135426;27;20023;-72
2021/07/31 01:14:54;;;;;;;23.45;14.95;;;691.40;1715.20;;;;;;5135139;27;20023;-72
2021/07/31 01:17:20;;;;;;;22.45;14.90;;;691.40;1715.20;;;;;;5135256;27;20072;-72
2021/07/31 01:19:46;;;;;;;23.20;15.00;;;691.40;1715.20;;;;;;5135088;27;20090;-72
2021/07/31 01:22:12;;;;;;;22.38;15.05;;;691.40;1715.20;;;;;;5134913;27;20072;-72
2021/07/31 01:24:38;;;;;;;19.30;14.65;;;691.30;1715.20;;;;;;5135267;27;20042;-72
2021/07/31 01:27:04;;;;;;;19.40;14.27;;;691.30;1715.20;;;;;;5134908;27;20128;-72
2021/07/31 01:29:30;;;;;;;20.42;14.18;;;691.40;1715.20;;;;;;5135199;27;20058;-72
2021/07/31 01:31:56;;;;;;;21.98;14.77;;;691.40;1715.20;;;;;;5134862;27;20051;-72
2021/07/31 01:34:22;;;;;;;18.83;14.52;;;691.30;1715.20;;;;;;5134700;27;20062;-72
2021/07/31 01:36:48;;;;;;;25.38;13.90;;;691.30;1715.20;;;;;;5134648;27;20108;-72
2021/07/31 01:39:14;;;;;;;26.27;14.02;;;691.30;1740.80;;;;;;5116323;27;20022;-72
2021/07/31 01:41:41;;;;;;;26.83;14.57;;;691.30;1740.80;;;;;;5134983;27;20383;-72
2021/07/31 01:44:07;;;;;;;20.15;13.73;;;691.30;1740.80;;;;;;5134964;27;20095;-72
2021/07/31 01:46:33;;;;;;;19.20;14.07;;;691.20;1740.80;;;;;;5134632;27;20034;-73
2021/07/31 01:48:59;;;;;;;24.98;14.27;;;691.20;1715.20;;;;;;5134522;27;20392;-72
2021/07/31 01:51:25;;;;;;;24.02;14.00;;;691.30;1715.20;;;;;;5134518;27;20027;-72
2021/07/31 01:53:51;;;;;;;15.68;13.73;;;691.30;1715.20;;;;;;5116143;27;20019;-72
2021/07/31 01:56:17;;;;;;;19.25;15.32;;;691.20;1689.60;;;;;;5134374;27;20042;-72
2021/07/31 01:58:43;;;;;;;19.67;14.70;;;691.20;1715.20;;;;;;5134733;27;20102;-72
2021/07/31 02:01:09;;;;;;;16.58;13.88;;;691.30;1689.60;;;;;;5134492;28;20513;-72
2021/07/31 02:03:35;;;;;;;20.52;14.40;;;691.20;1715.20;;;;;;5134413;28;20023;-72
2021/07/31 02:06:01;;;;;;;22.17;15.00;;;691.20;1715.20;;;;;;5134374;28;20096;-72
2021/07/31 02:08:27;;;;;;;19.50;14.65;;;691.20;1689.60;;;;;;5134568;28;20027;-72
2021/07/31 02:10:53;;;;;;;22.27;14.70;;;691.20;1689.60;;;;;;5134345;28;20032;-72
2021/07/31 02:13:19;;;;;;;19.08;14.13;;;691.20;1689.60;;;;;;5137283;27;20459;-72
2021/07/31 02:15:46;;;;;;;18.25;13.23;;;691.20;1689.60;;;;;;5138657;27;20098;-72
2021/07/31 02:18:12;;;;;;;21.88;13.32;;;691.20;1664.00;;;;;;5138545;27;20494;-72
2021/07/31 02:20:38;;;;;;;16.30;12.50;;;691.20;1664.00;;;;;;5138497;27;20527;-73
2021/07/31 02:23:05;;;;;;;18.60;12.93;;;691.20;1664.00;;;;;;5138729;27;20019;-72
2021/07/31 02:25:30;;;;;;;15.82;12.48;;;691.20;1664.00;;;;;;5138367;27;20030;-72
2021/07/31 02:27:56;;;;;;;20.02;13.18;;;691.20;1664.00;;;;;;5139006;27;20031;-72
2021/07/31 02:30:23;;;;;;;17.48;13.02;;;691.20;1664.00;;;;;;5138306;27;20015;-73
2021/07/31 02:32:49;;;;;;;18.92;13.75;;;666.40;1689.60;;;;;;5138331;27;20084;-72
2021/07/31 02:35:16;;;;;;;16.23;12.70;;;666.40;1689.60;;;;;;5138284;27;20026;-73
2021/07/31 02:37:42;;;;;;;18.15;12.80;;;666.40;1689.60;;;;;;5138171;27;20434;-72
2021/07/31 02:40:09;;;;;;;19.92;12.10;;;666.40;1689.60;;;;;;5138232;27;20034;-72
2021/07/31 02:42:35;;;;;;;16.27;12.02;;;666.40;1689.60;;;;;;5138070;27;20034;-72
2021/07/31 02:45:01;;;;;;;18.20;12.18;;;666.40;1689.60;;;;;;5138055;27;20027;-73
2021/07/31 02:47:28;;;;;;;14.55;11.88;;;666.30;1689.60;;;;;;5137910;27;20030;-72
2021/07/31 02:49:54;;;;;;;20.88;12.75;;;666.40;1689.60;;;;;;5119536;27;20080;-72
2021/07/31 02:52:20;;;;;;;19.45;12.85;;;666.40;1689.60;;;;;;5137910;27;20398;-72
2021/07/31 02:54:46;;;;;;;22.75;13.20;;;666.20;1715.20;;;;;;5119518;27;20035;-73
2021/07/31 02:57:12;;;;;;;20.67;13.07;;;666.20;1715.20;;;;;;5137774;27;20033;-72
2021/07/31 02:59:37;;;;;;;24.75;13.07;;;666.30;1715.20;;;;;;5137754;27;20031;-73
2021/07/31 03:02:04;;;;;;;18.75;12.70;;;666.30;1715.20;;;;;;5137995;27;20091;-72
2021/07/31 03:04:30;;;;;;;19.38;15.32;;;666.10;1715.20;;;;;;5137721;27;20025;-73
2021/07/31 03:06:55;;;;;;;26.88;16.60;;;666.00;1740.80;;;;;;5137387;27;20039;-73
2021/07/31 03:09:23;;;;;;;26.35;16.83;;;666.00;1740.80;;;;;;5119227;27;20023;-73
2021/07/31 03:11:49;;;;;;;21.27;15.10;;;666.10;1715.20;;;;;;5119167;27;20072;-73
2021/07/31 03:14:15;;;;;;;21.70;16.63;;;666.00;1740.80;;;;;;5137724;27;20019;-72
2021/07/31 03:16:40;;;;;;;21.38;16.02;;;666.00;1740.80;;;;;;5137679;27;20520;-73
2021/07/31 03:19:06;;;;;;;20.67;16.38;;;666.00;1740.80;;;;;;5118966;27;20050;-72
2021/07/31 03:21:32;;;;;;;24.08;15.80;;;666.10;1740.80;;;;;;5137679;27;20030;-73
2021/07/31 03:23:58;;;;;;;23.63;16.50;;;666.00;1740.80;;;;;;5136582;27;20050;-72
2021/07/31 03:26:24;;;;;;;21.63;15.52;;;666.00;1740.80;;;;;;5137593;27;20058;-72
2021/07/31 03:28:50;;;;;;;23.67;14.95;;;666.00;1740.80;;;;;;5137230;27;20031;-72
2021/07/31 03:31:20;;;;;;;28.60;16.20;;;666.00;1740.80;;;;;;5137152;27;20011;-73
2021/07/31 03:33:46;;;;;;;23.48;15.48;;;666.10;1740.80;;;;;;5137094;27;20062;-72
2021/07/31 03:36:12;;;;;;;23.83;15.77;;;666.10;1740.80;;;;;;5137062;27;20027;-72
2021/07/31 03:38:38;;;;;;;20.65;14.95;;;666.10;1740.80;;;;;;5137331;27;20034;-73
2021/07/31 03:41:04;;;;;;;18.05;14.95;;;666.30;1740.80;;;;;;5136835;27;20127;-76
2021/07/31 03:43:30;;;;;;;23.95;14.00;;;666.20;1740.80;;;;;;5136754;27;20164;-73
2021/07/31 03:45:56;;;;;;;21.58;15.00;;;666.10;1740.80;;;;;;5136745;27;20034;-73
2021/07/31 03:48:22;;;;;;;21.58;15.80;;;666.10;1766.40;;;;;;5136689;27;20092;-73
2021/07/31 03:50:48;;;;;;;28.90;14.52;;;666.00;1766.40;;;;;;5137122;27;20467;-74
2021/07/31 03:53:14;;;;;;;26.83;16.23;;;666.00;1766.40;;;;;;5136869;27;20042;-75
2021/07/31 03:55:44;;;;;;;17.02;14.65;;;666.00;1792.00;;;;;;5136603;27;20472;-73
2021/07/31 03:58:09;;;;;;;23.05;14.00;;;666.00;1766.40;;;;;;5136643;27;20027;-72
2021/07/31 04:00:35;;;;;;;21.77;15.40;;;665.90;1766.40;;;;;;5136768;27;20019;-72
2021/07/31 04:03:01;;;;;;;20.58;14.07;;;665.90;1766.40;;;;;;5136209;27;20050;-72
2021/07/31 04:05:27;;;;;;;19.73;13.93;;;665.90;1766.40;;;;;;5136047;27;20029;-76
2021/07/31 04:07:53;;;;;;;17.98;13.10;;;665.90;1766.40;;;;;;5136293;27;20034;-72
2021/07/31 04:10:19;;;;;;;23.63;13.60;;;666.00;1766.40;;;;;;5117884;27;20055;-76
2021/07/31 04:12:45;;;;;;;20.58;13.60;;;666.00;1766.40;;;;;;5136296;27;20023;-72
2021/07/31 04:15:11;;;;;;;21.15;12.55;;;666.00;1766.40;;;;;;5136133;27;20027;-72
2021/07/31 04:17:37;;;;;;;19.25;15.05;;;666.00;1766.40;;;;;;5136323;27;20039;-76
2021/07/31 04:20:04;;;;;;;26.90;15.68;;;665.80;1766.40;;;;;;5136161;27;20037;-75
2021/07/31 04:22:29;;;;;;;20.52;14.55;;;665.70;1766.40;;;;;;5136085;27;20023;-76
2021/07/31 04:24:55;;;;;;;20.48;13.43;;;665.70;1766.40;;;;;;5136116;27;20060;-72
2021/07/31 04:27:21;;;;;;;21.60;13.15;;;665.70;1766.40;;;;;;5135888;27;20028;-72
2021/07/31 04:29:47;;;;;;;23.40;13.50;;;665.70;1766.40;;;;;;5135872;27;20027;-75
2021/07/31 04:32:13;;;;;;;20.25;13.27;;;665.80;1740.80;;;;;;5135990;27;20023;-72
2021/07/31 04:34:39;;;;;;;19.00;13.40;;;665.70;1740.80;;;;;;5135917;27;20483;-72
2021/07/31 04:37:05;;;;;;;20.95;14.00;;;665.80;1740.80;;;;;;5114523;27;20073;-72
2021/07/31 04:39:33;;;;;;;18.25;12.45;;;665.90;1766.40;;;;;;5133914;27;20033;-72
2021/07/31 04:42:00;;;;;;;22.45;12.80;;;665.70;1766.40;;;;;;5133960;27;20046;-73
2021/07/31 04:44:26;;;;;;;23.75;13.07;;;665.80;1740.80;;;;;;5133980;27;20064;-73
2021/07/31 04:46:52;;;;;;;18.85;12.00;;;665.90;1740.80;;;;;;5133931;27;20433;-73
2021/07/31 04:49:18;;;;;;;18.40;12.30;;;666.00;1740.80;;;;;;5133849;27;20027;-72
2021/07/31 04:51:44;;;;;;;25.50;11.57;;;666.00;1740.80;;;;;;5134755;27;20019;-72
2021/07/31 04:54:10;;;;;;;25.98;12.35;;;666.10;1715.20;;;;;;5135623;27;20102;-73
2021/07/31 04:56:37;;;;;;;27.85;11.80;;;666.20;1715.20;;;;;;5135500;27;20113;-72
2021/07/31 04:59:03;;;;;;;29.25;11.93;;;666.30;1715.20;;;;;;5135190;27;20163;-75
2021/07/31 05:01:29;;;;;;;27.55;11.95;;;666.20;1715.20;;;;;;5136045;27;20075;-72
2021/07/31 05:03:55;;;;;;;18.63;11.85;;;666.20;1715.20;;;;;;5135448;27;20027;-74
2021/07/31 05:06:22;;;;;;;24.50;13.07;;;666.30;1715.20;;;;;;5134970;27;20192;-72
2021/07/31 05:08:49;;;;;;;29.55;12.18;;;666.30;1740.80;;;;;;5135357;27;20390;-73
2021/07/31 05:11:15;;;;;;;31.52;11.95;;;666.40;1740.80;;;;;;5135078;27;20046;-75
2021/07/31 05:13:41;;;;;;;21.67;11.82;;;666.40;1715.20;;;;;;5134973;27;20019;-76
2021/07/31 05:16:07;;;;;;;30.80;12.45;;;666.40;1715.20;;;;;;5134917;27;20034;-76
2021/07/31 05:18:33;;;;;;;34.40;13.13;;;666.50;1715.20;;;;;;5134932;27;20030;-72
2021/07/31 05:20:59;;;;;;;27.58;11.77;;;666.50;1715.20;;;;;;5134863;27;20506;-75
2021/07/31 05:23:25;;;;;;;31.50;11.43;;;691.20;1689.60;;;;;;5135154;27;20084;-75
2021/07/31 05:25:51;;;;;;;19.02;11.20;;;691.20;1689.60;;;;;;5134885;27;20019;-72
2021/07/31 05:28:19;;;;;;;22.00;11.45;;;691.20;1689.60;;;;;;5134737;27;20106;-75
2021/07/31 05:30:45;;;;;;;28.42;12.80;;;691.30;1664.00;;;;;;5134938;27;20026;-76
2021/07/31 05:33:11;;;;;;;41.92;12.40;;;691.30;1689.60;;;;;;5134955;27;20019;-72
2021/07/31 05:35:37;;;;;;;27.67;12.23;;;691.30;1664.00;;;;;;5134623;27;20024;-72
2021/07/31 05:38:03;;;;;;;34.25;12.80;;;691.30;1664.00;;;;;;5134610;27;20027;-72
2021/07/31 05:40:29;;;;;;;18.77;10.30;;;691.40;1664.00;;;;;;5134518;27;20027;-72
2021/07/31 05:42:55;;;;;;;18.27;10.65;;;691.40;1638.40;;;;;;5116128;27;20015;-76
2021/07/31 05:45:21;;;;;;;22.48;10.65;;;691.40;1638.40;;;;;;5116153;27;20528;-75
2021/07/31 05:47:47;;;;;;;21.90;9.68;;;691.50;1638.40;;;;;;5134076;27;20080;-76
2021/07/31 05:50:13;;;;;;;20.02;9.73;;;691.40;1638.40;;;;;;5116105;27;20072;-74
2021/07/31 05:52:39;;;;;;;19.23;8.85;;;691.40;1638.40;;;;;;5134365;27;20455;-73
2021/07/31 05:55:06;;;;;;;15.05;9.60;;;691.50;1638.40;;;;;;5134325;27;20027;-72
2021/07/31 05:57:33;;;;;;;25.75;9.27;;;691.50;1638.40;;;;;;5134229;27;20031;-75
2021/07/31 05:59:59;;;;;;;59.35;11.07;;;691.40;1638.40;;;;;;5134145;27;20022;-72
2021/07/31 06:02:25;;;;;;;26.67;9.98;;;691.50;1612.80;;;;;;5134190;28;20023;-71
2021/07/31 06:04:51;;;;;;;19.02;10.10;;;691.50;1612.80;;;;;;5134235;28;20076;-73
2021/07/31 06:07:18;;;;;;;14.05;9.43;;;691.50;1612.80;;;;;;5134272;28;20043;-71
2021/07/31 06:09:56;;;;;;;29.75;10.52;;;691.50;1612.80;;;;;;5134286;28;20074;-71
2021/07/31 06:12:22;;;;;;;14.80;7.72;;;691.60;1612.80;;;;;;5134726;28;20050;-70
2021/07/31 06:14:48;;;;;;;22.63;9.43;;;691.70;1587.20;;;;;;5134233;28;20038;-71
2021/07/31 06:17:15;;;;;;;20.08;9.25;;;691.70;1612.80;;;;;;5115794;28;20027;-74
2021/07/31 06:19:41;;;;;;;25.83;11.88;;;691.80;1612.80;;;;;;5134321;28;20023;-74
2021/07/31 06:22:07;;;;;;;30.65;10.00;;;691.80;1587.20;;;;;;5130659;28;20032;-74
2021/07/31 06:24:33;;;;;;;21.63;9.15;;;691.90;1587.20;;;;;;5102222;28;20490;-75
2021/07/31 06:26:59;;;;;;;30.45;9.00;;;691.90;1561.60;;;;;;5113721;28;20019;-74
2021/07/31 06:29:25;;;;;;;26.88;8.77;;;692.00;1561.60;;;;;;5113641;28;20102;-75
2021/07/31 06:31:51;;;;;;;17.40;9.00;;;692.00;1587.20;;;;;;5117098;28;20102;-73
2021/07/31 06:34:18;;;;;;;35.25;9.68;;;692.00;1561.60;;;;;;5123154;28;20017;-73
2021/07/31 06:36:44;;;;;;;23.80;9.00;;;716.80;1587.20;;;;;;5124137;28;20455;-70
2021/07/31 06:39:11;;;;;;;17.83;8.98;;;716.90;1587.20;;;;;;5114193;28;20051;-69
2021/07/31 06:41:37;;;;;;;19.48;8.93;;;716.90;1587.20;;;;;;5113725;28;20027;-72
2021/07/31 06:44:03;;;;;;;18.67;8.68;;;717.00;1587.20;;;;;;5119708;28;20023;-69
2021/07/31 06:46:29;;;;;;;36.72;10.43;;;717.10;1561.60;;;;;;5124268;28;20033;-69
2021/07/31 06:48:56;;;;;;;36.88;9.90;;;717.20;1561.60;;;;;;5116137;28;20023;-71
2021/07/31 06:51:23;;;;;;;20.90;8.88;;;717.30;1587.20;;;;;;5121501;28;20023;-71
2021/07/31 06:53:50;;;;;;;36.33;9.38;;;717.30;1587.20;;;;;;5124295;28;20031;-73
2021/07/31 06:56:16;;;;;;;21.25;8.80;;;717.50;1587.20;;;;;;5122130;28;20494;-72
2021/07/31 06:58:42;;;;;;;20.98;8.73;;;717.50;1587.20;;;;;;5122748;28;20038;-74
2021/07/31 07:01:09;;;;;;;15.15;8.90;;;717.70;1587.20;;;;;;5127673;27;20023;-73
2021/07/31 07:03:35;;;;;;;18.10;9.20;;;742.40;1612.80;;;;;;5125962;27;20072;-70
2021/07/31 07:06:05;;;;;;;26.85;9.45;;;742.40;1612.80;;;;;;5126142;27;20527;-71
2021/07/31 07:08:32;;;;;;;22.63;9.27;;;742.50;1612.80;;;;;;5127233;27;20023;-70
2021/07/31 07:10:58;;;;;;;60.78;20.38;;;742.40;1612.80;;;;;;5125563;27;20019;-72
2021/07/31 07:13:24;;;;;;;44.47;21.10;;;742.60;1612.80;;;;;;5127325;27;20094;-71
2021/07/31 07:15:50;;;;;;;35.88;17.23;;;742.60;1612.80;;;;;;5116088;28;20032;-71
2021/07/31 07:18:16;;;;;;;39.78;20.00;;;742.60;1612.80;;;;;;5116129;28;20056;-70
2021/07/31 07:20:42;;;;;;;44.42;18.85;;;742.70;1612.80;;;;;;5116412;28;20016;-71
2021/07/31 07:23:08;;;;;;;21.52;10.40;;;742.70;1612.80;;;;;;5122064;27;20051;-70
2021/07/31 07:25:34;;;;;;;15.65;9.57;;;742.70;1612.80;;;;;;5126066;27;20061;-73
2021/07/31 07:28:01;;;;;;;22.92;13.18;;;742.70;1587.20;;;;;;5113821;27;20035;-74
2021/07/31 07:30:27;;;;;;;16.90;10.18;;;742.80;1587.20;;;;;;5116452;27;20579;-74
2021/07/31 07:32:54;;;;;;;16.08;10.55;;;742.80;1587.20;;;;;;5119429;27;20044;-72
2021/07/31 07:35:21;;;;;;;28.90;12.05;;;742.80;1587.20;;;;;;5126235;27;20031;-75
2021/07/31 07:37:47;;;;;;;18.40;11.98;;;742.90;1587.20;;;;;;5108201;27;20032;-76
2021/07/31 07:40:14;;;;;;;30.83;23.60;;;742.90;1612.80;;;;;;5108291;27;20028;-71
2021/07/31 07:42:40;;;;;;;19.92;11.95;;;743.00;1612.80;;;;;;5124184;27;20031;-73
2021/07/31 07:45:07;;;;;;;28.60;11.40;;;743.00;1612.80;;;;;;5125521;27;20479;-72
2021/07/31 07:47:34;;;;;;;23.92;12.48;;;743.00;1587.20;;;;;;5123368;27;20535;-75
2021/07/31 07:50:00;;;;;;;27.80;11.38;;;743.00;1587.20;;;;;;5126177;27;20091;-73
2021/07/31 07:52:26;;;;;;;23.88;10.77;;;743.10;1587.20;;;;;;5124681;27;20375;-77
2021/07/31 07:54:52;;;;;;;21.58;12.45;;;743.10;1587.20;;;;;;5124631;27;20012;-71
2021/07/31 07:57:18;;;;;;;26.83;10.57;;;743.00;1587.20;;;;;;5125691;27;20027;-73
2021/07/31 07:59:44;;;;;;;17.25;8.95;;;743.10;1561.60;;;;;;5123912;27;20018;-73
2021/07/31 08:02:10;;;;;;;23.55;10.63;;;743.10;1536.00;;;;;;5106269;27;20035;-72
2021/07/31 08:04:35;;;;;;;16.70;9.77;;;743.10;1587.20;;;;;;5125624;27;20060;-74
2021/07/31 08:07:01;;;;;;;20.20;9.93;;;743.10;1561.60;;;;;;5122745;27;20045;-76
2021/07/31 08:09:27;;;;;;;19.00;10.13;;;743.10;1561.60;;;;;;5124330;27;20102;-75
2021/07/31 08:11:53;;;;;;;26.50;11.52;;;743.10;1587.20;;;;;;5124040;27;20098;-76
2021/07/31 08:14:19;;;;;;;22.77;10.40;;;743.20;1587.20;;;;;;5125571;27;20475;-76
2021/07/31 08:16:45;;;;;;;27.23;10.20;;;743.20;1587.20;;;;;;5123681;27;20492;-76
2021/07/31 08:19:11;;;;;;;17.77;9.25;;;743.20;1561.60;;;;;;5126203;27;20080;-75
2021/07/31 08:21:39;;;;;;;19.48;10.63;;;743.10;1536.00;;;;;;5123360;27;20038;-73
2021/07/31 08:24:06;;;;;;;18.77;9.07;;;743.20;1510.40;;;;;;5123761;27;20023;-73
2021/07/31 08:26:32;;;;;;;21.67;9.52;;;743.10;1510.40;;;;;;5124157;27;20050;-74
2021/07/31 08:28:59;;;;;;;16.17;9.25;;;743.20;1561.60;;;;;;5125285;27;20386;-75
2021/07/31 08:31:24;;;;;;;14.88;9.00;;;743.20;1561.60;;;;;;5125538;27;20023;-75
2021/07/31 08:33:51;;;;;;;11.23;7.88;;;743.20;1561.60;;;;;;5124432;27;20141;-75
2021/07/31 08:36:17;;;;;;;16.33;9.25;;;743.20;1536.00;;;;;;5123383;27;20098;-72
2021/07/31 08:38:43;;;;;;;18.55;8.77;;;743.20;1561.60;;;;;;5123228;27;20551;-72
2021/07/31 08:41:09;;;;;;;13.73;8.65;;;743.20;1561.60;;;;;;5124142;27;20026;-71
2021/07/31 08:43:35;;;;;;;14.05;8.73;;;743.20;1561.60;;;;;;5134353;27;20058;-71
2021/07/31 08:46:06;;;;;;;17.67;9.32;;;743.20;1561.60;;;;;;5135567;27;20027;-70
2021/07/31 08:48:33;;;;;;;18.02;9.15;;;743.20;1561.60;;;;;;5135416;27;20026;-74
2021/07/31 08:51:01;;;;;;;23.75;9.50;;;743.20;1587.20;;;;;;5135377;27;20066;-71
2021/07/31 08:53:30;;;;;;;29.20;9.55;;;743.20;1561.60;;;;;;5117012;27;20076;-77
2021/07/31 08:55:57;;;;;;;40.63;10.02;;;743.20;1587.20;;;;;;5116860;27;20375;-74
2021/07/31 08:58:23;;;;;;;25.20;9.10;;;743.30;1561.60;;;;;;5122267;27;20472;-72
2021/07/31 09:00:53;;;;;;;28.35;9.68;;;743.30;1561.60;;;;;;5115121;28;20114;-70
2021/07/31 09:03:20;;;;;;;29.58;10.80;;;743.30;1561.60;;;;;;5114781;28;20104;-71
2021/07/31 09:05:47;;;;;;;29.63;10.43;;;768.00;1587.20;;;;;;5114534;28;20043;-72
2021/07/31 09:08:13;;;;;;;24.98;10.90;;;768.00;1587.20;;;;;;5096437;28;20020;-71
2021/07/31 09:10:44;;;;;;;27.63;10.18;;;743.30;1561.60;;;;;;5114447;28;20072;-71
2021/07/31 09:13:15;;;;;;;15.93;9.48;;;743.30;1561.60;;;;;;5113799;28;20303;-72
2021/07/31 09:15:47;;;;;;;20.30;10.00;;;768.00;1536.00;;;;;;5115802;27;20024;-70
2021/07/31 09:18:29;;;;;;;18.23;8.70;;;768.00;1561.60;;;;;;5118635;27;20099;-71
2021/07/31 09:20:56;;;;;;;20.13;9.15;;;768.00;1536.00;;;;;;5114577;28;20019;-71
2021/07/31 09:23:22;;;;;;;16.75;9.20;;;768.00;1561.60;;;;;;5113616;28;20032;-71
2021/07/31 09:26:01;;;;;;;13.82;9.18;;;768.00;1536.00;;;;;;5114395;28;20026;-70
2021/07/31 09:28:28;;;;;;;14.25;9.38;;;768.00;1536.00;;;;;;5114309;28;20028;-72
2021/07/31 09:30:54;;;;;;;25.33;9.95;;;768.10;1561.60;;;;;;5114967;28;20346;-70
2021/07/31 09:33:20;;;;;;;16.48;9.15;;;768.10;1561.60;;;;;;5114237;28;20034;-72
2021/07/31 09:35:47;;;;;;;24.40;8.35;;;768.10;1561.60;;;;;;5114336;28;20094;-71
2021/07/31 09:38:13;;;;;;;18.67;9.68;;;768.10;1561.60;;;;;;5114343;28;20027;-75
2021/07/31 09:40:39;;;;;;;24.38;9.95;;;768.10;1561.60;;;;;;5129907;27;20027;-70
2021/07/31 09:43:13;;;;;;;16.20;9.05;;;768.10;1561.60;;;;;;5116305;27;20470;-70
2021/07/31 09:45:39;;;;;;;19.15;9.48;;;768.10;1561.60;;;;;;5134664;27;20027;-71
2021/07/31 09:48:08;;;;;;;17.92;9.32;;;768.10;1561.60;;;;;;5130720;27;20019;-72
2021/07/31 09:50:37;;;;;;;19.77;9.18;;;768.10;1561.60;;;;;;5131380;27;20491;-71
2021/07/31 09:53:08;;;;;;;18.85;9.00;;;768.20;1536.00;;;;;;5134757;27;20019;-70
2021/07/31 09:55:36;;;;;;;38.67;10.60;;;768.20;1536.00;;;;;;5116053;27;20023;-73
2021/07/31 09:58:06;;;;;;;22.88;11.90;;;768.10;1536.00;;;;;;5134357;27;20039;-70
2021/07/31 10:00:32;;;;;;;20.02;10.75;;;768.10;1536.00;;;;;;5134328;27;20023;-70
2021/07/31 10:02:58;;;;;;;14.20;8.77;;;768.00;1536.00;;;;;;5134494;27;20027;-70
2021/07/31 10:05:24;;;;;;;20.75;10.02;;;768.00;1510.40;;;;;;5134364;28;20027;-71
2021/07/31 10:07:50;;;;;;;18.27;9.30;;;768.00;1536.00;;;;;;5134485;28;20367;-70
2021/07/31 10:10:18;;;;;;;20.75;10.57;;;768.00;1536.00;;;;;;5134410;28;20094;-70
2021/07/31 10:12:45;;;;;;;14.88;8.73;;;768.10;1484.80;;;;;;5134273;28;20019;-71
2021/07/31 10:15:11;;;;;;;15.38;10.10;;;768.10;1536.00;;;;;;5133950;28;20022;-73
2021/07/31 10:17:39;;;;;;;13.68;8.25;;;768.20;1536.00;;;;;;5133716;28;20391;-74
2021/07/31 10:20:06;;;;;;;14.80;8.57;;;768.10;1536.00;;;;;;5134291;28;20019;-71
2021/07/31 10:22:44;;;;;;;16.60;8.45;;;768.10;1536.00;;;;;;5134238;28;20031;-71
2021/07/31 10:25:12;;;;;;;25.55;8.35;;;768.10;1510.40;;;;;;5134200;28;20043;-72
2021/07/31 10:27:38;;;;;;;15.63;9.02;;;768.10;1536.00;;;;;;5134225;28;20141;-70
2021/07/31 10:30:22;;;;;;;14.27;8.18;;;768.20;1536.00;;;;;;5134311;28;20079;-74
2021/07/31 10:32:48;;;;;;;11.38;7.15;;;768.20;1459.20;;;;;;5134408;27;20023;-70
2021/07/31 10:35:38;;;;;;;23.48;8.57;;;768.20;1433.60;;;;;;5138452;27;20053;-75
2021/07/31 10:38:10;;;;;;;14.38;8.55;;;768.20;1484.80;;;;;;5138583;27;20059;-70
2021/07/31 10:40:41;;;;;;;25.02;9.98;;;768.30;1484.80;;;;;;5138228;27;20075;-75
2021/07/31 10:43:08;;;;;;;39.75;13.32;;;768.20;1484.80;;;;;;5138378;27;20031;-70
2021/07/31 10:45:35;;;;;;;31.30;12.93;;;768.30;1510.40;;;;;;5137960;27;20023;-75
2021/07/31 10:48:28;;;;;;;14.05;8.95;;;768.30;1510.40;;;;;;5138103;27;20019;-71
2021/07/31 10:50:55;;;;;;;28.83;12.68;;;768.40;1484.80;;;;;;5124221;27;20027;-74
2021/07/31 10:53:21;;;;;;;15.07;9.48;;;768.40;1484.80;;;;;;5134253;27;20117;-72
2021/07/31 10:55:47;;;;;;;18.48;8.88;;;768.40;1510.40;;;;;;5127225;27;20045;-72
2021/07/31 10:58:12;;;;;;;11.45;8.80;;;768.50;1510.40;;;;;;5126562;27;20028;-74
2021/07/31 11:00:47;;;;;;;19.88;8.98;;;768.50;1510.40;;;;;;5122274;27;20057;-73
2021/07/31 11:03:25;;;;;;;46.33;10.25;;;768.50;1484.80;;;;;;5116470;28;20104;-73
2021/07/31 11:06:06;;;;;;;16.77;7.75;;;768.50;1536.00;;;;;;5115973;28;20039;-75
2021/07/31 11:08:33;;;;;;;15.45;8.25;;;768.50;1484.80;;;;;;5124174;27;20079;-73
2021/07/31 11:11:14;;;;;;;21.92;7.70;;;768.70;1510.40;;;;;;5127181;27;20353;-71
2021/07/31 11:13:46;;;;;;;16.92;7.60;;;768.70;1459.20;;;;;;5126738;27;20075;-74
2021/07/31 11:16:15;;;;;;;15.50;7.10;;;768.70;1484.80;;;;;;5125521;27;20024;-76
2021/07/31 11:18:44;;;;;;;15.38;7.32;;;768.70;1484.80;;;;;;5124711;27;20015;-72
2021/07/31 11:21:31;;;;;;;11.30;6.47;;;768.70;1510.40;;;;;;5125556;27;20462;-72
2021/07/31 11:24:03;;;;;;;16.15;6.35;;;768.80;1459.20;;;;;;5126127;27;20402;-71
2021/07/31 11:26:51;;;;;;;20.55;7.63;;;768.70;1408.00;;;;;;5127581;27;20030;-74
2021/07/31 11:29:21;;;;;;;8.20;6.80;;;768.90;1433.60;;;;;;5107498;27;20031;-72
2021/07/31 11:32:14;;;;;;;8.95;6.78;;;768.80;1459.20;;;;;;5121579;27;20020;-71
2021/07/31 11:34:45;;;;;;;15.88;6.85;;;768.90;1433.60;;;;;;5115330;27;20046;-74
2021/07/31 11:37:11;;;;;;;15.02;6.65;;;768.80;1459.20;;;;;;5103535;27;20063;-72
2021/07/31 11:39:38;;;;;;;16.80;7.53;;;768.80;1484.80;;;;;;5126137;27;20080;-72
2021/07/31 11:42:06;;;;;;;10.57;6.55;;;768.80;1484.80;;;;;;5126627;27;20056;-72
2021/07/31 11:44:34;;;;;;;12.98;6.50;;;768.90;1484.80;;;;;;5124268;27;20548;-76
2021/07/31 11:47:00;;;;;;;15.52;6.82;;;793.60;1510.40;;;;;;5124480;27;20047;-73
2021/07/31 11:49:35;;;;;;;15.40;7.22;;;793.60;1484.80;;;;;;5124890;27;20019;-76
2021/07/31 11:52:09;;;;;;;8.27;7.05;;;793.70;1484.80;;;;;;5115490;28;20111;-75
2021/07/31 11:54:40;;;;;;;19.95;7.45;;;793.70;1510.40;;;;;;5116298;28;20031;-73
2021/07/31 11:57:07;;;;;;;9.82;5.82;;;793.70;1510.40;;;;;;5115431;28;20067;-72
2021/07/31 11:59:35;;;;;;;10.90;7.20;;;793.80;1484.80;;;;;;5115688;28;20034;-73
2021/07/31 12:02:01;;;;;;;11.82;6.50;;;793.90;1510.40;;;;;;5120738;27;20039;-77
2021/07/31 12:04:45;;;;;;;17.90;7.13;;;793.90;1536.00;;;;;;5130685;27;20020;-74